DAAG/ALG METAR and TAF weather

Enter ICAO airport designator
Station Type Date Time Source
DAAG METAR 2022/05/24 11:00 UTC NOAA

DAAG 241100Z 36009KT CAVOK 29/14 Q1009


Station Type Date Time Source
DAAG Decoded METAR 2022/05/24 11:00 UTC NOAA

Dar-El-Beida, Algeria (DAAG) 36-43N 003-15E 25M
May 24, 2022 - 07:00 AM EDT / 2022.05.24 1100 UTC
Wind: from the N (360 degrees) at 10 MPH (9 KT):0
Visibility: greater than 7 mile(s):0
Temperature: 84 F (29 C)
Dew Point: 57 F (14 C)
Relative Humidity: 39%
Pressure (altimeter): 29.80 in. Hg (1009 hPa)
ob: DAAG 241100Z 36009KT CAVOK 29/14 Q1009
cycle: 11

Station Type Date Time Source
DAAG TAF 2022/05/24 06:34 UTC NOAA

TAF DAAG 240500Z 2406/2506 VRB02KT CAVOK
BECMG 2410/2412 04010KT
BECMG 2417/2418 VRB02KT

Example: see airport list